Time;durP1;ratioP1;P1;durP2;ratioP2;P2;SDS_P1;SDS_P2;PMS_P1;PMS_P2;Temp;Humidity;BMP_temperature;BMP_pressure;BME280_temperature;BME280_humidity;BME280_pressure;Samples;Min_cycle;Max_cycle;Signal;HPM_P1;HPM_P2
2021/05/14 00:00:54;;;;;;;4.03;3.45;;;13.40;65.10;;;;;;5008011;28;20045;-78
2021/05/14 00:03:20;;;;;;;2.65;2.42;;;13.40;65.10;;;;;;5007708;28;20092;-77
2021/05/14 00:05:46;;;;;;;3.28;2.97;;;13.30;65.00;;;;;;5025850;28;20076;-78
2021/05/14 00:08:12;;;;;;;3.13;2.83;;;13.30;65.00;;;;;;5025763;28;20481;-78
2021/05/14 00:10:39;;;;;;;3.13;2.50;;;13.30;65.00;;;;;;5027163;28;20021;-79
2021/05/14 00:13:09;;;;;;;2.72;2.53;;;13.30;65.00;;;;;;5009152;28;20095;-78
2021/05/14 00:15:35;;;;;;;3.20;2.90;;;13.20;64.90;;;;;;5027159;28;20033;-78
2021/05/14 00:18:01;;;;;;;3.13;2.83;;;13.20;64.90;;;;;;5027326;28;20025;-78
2021/05/14 00:20:28;;;;;;;3.65;3.35;;;13.20;65.00;;;;;;5026286;28;20112;-78
2021/05/14 00:22:54;;;;;;;3.20;2.90;;;13.20;65.00;;;;;;5026916;28;20031;-78
2021/05/14 00:25:20;;;;;;;3.13;2.90;;;13.20;65.00;;;;;;5009038;28;20389;-78
2021/05/14 00:27:47;;;;;;;3.80;2.10;;;13.20;65.10;;;;;;5025971;28;20475;-78
2021/05/14 00:30:14;;;;;;;3.95;2.97;;;13.10;64.90;;;;;;5007137;28;20034;-78
2021/05/14 00:32:40;;;;;;;4.45;2.90;;;13.20;65.10;;;;;;4989890;28;20038;-77
2021/05/14 00:35:07;;;;;;;4.35;2.95;;;13.10;65.00;;;;;;5024293;28;20484;-78
2021/05/14 00:37:34;;;;;;;4.57;3.40;;;13.10;65.00;;;;;;5025613;28;20034;-78
2021/05/14 00:40:01;;;;;;;3.78;3.17;;;13.10;65.00;;;;;;5025315;28;20044;-78
2021/05/14 00:42:27;;;;;;;2.80;2.50;;;13.10;65.00;;;;;;5025839;28;20029;-78
2021/05/14 00:44:54;;;;;;;3.25;2.80;;;13.10;65.10;;;;;;5025541;28;20033;-79
2021/05/14 00:47:20;;;;;;;3.97;3.38;;;13.10;65.10;;;;;;5039252;28;20049;-78
2021/05/14 00:49:47;;;;;;;3.03;2.83;;;13.00;64.90;;;;;;5046450;28;20017;-79
2021/05/14 00:52:16;;;;;;;3.40;3.10;;;13.00;65.00;;;;;;5046923;28;20060;-79
2021/05/14 00:54:43;;;;;;;3.83;3.35;;;13.00;65.00;;;;;;5017696;28;20523;-79
2021/05/14 00:57:12;;;;;;;3.65;3.25;;;13.00;65.00;;;;;;5026698;28;20041;-79
2021/05/14 00:59:39;;;;;;;3.17;2.88;;;13.00;65.00;;;;;;5026930;28;20038;-78
2021/05/14 01:02:05;;;;;;;3.70;2.90;;;13.00;65.00;;;;;;5009130;28;20496;-78
2021/05/14 01:04:32;;;;;;;3.53;2.88;;;12.90;64.80;;;;;;5026150;28;20113;-78
2021/05/14 01:06:58;;;;;;;3.65;3.20;;;12.90;64.90;;;;;;5026080;28;20072;-79
2021/05/14 01:09:24;;;;;;;3.55;3.00;;;12.90;64.90;;;;;;5000776;28;20030;-78
2021/05/14 01:11:50;;;;;;;3.60;3.30;;;12.90;64.90;;;;;;5025226;28;20035;-78
2021/05/14 01:14:16;;;;;;;3.35;3.05;;;12.90;65.00;;;;;;5017106;28;20061;-78
2021/05/14 01:16:42;;;;;;;3.35;3.05;;;12.90;65.00;;;;;;5026364;28;20029;-78
2021/05/14 01:19:09;;;;;;;3.15;2.85;;;12.80;64.80;;;;;;5017709;28;20155;-79
2021/05/14 01:21:35;;;;;;;4.13;3.17;;;12.80;64.80;;;;;;5046269;28;20849;-78
2021/05/14 01:24:01;;;;;;;3.47;3.10;;;12.80;64.90;;;;;;5046189;28;20133;-78
2021/05/14 01:26:27;;;;;;;3.72;3.40;;;12.80;64.90;;;;;;5029078;28;20029;-78
2021/05/14 01:28:54;;;;;;;3.25;2.80;;;12.80;64.90;;;;;;5046053;28;20396;-78
2021/05/14 01:31:21;;;;;;;3.58;3.25;;;12.80;65.00;;;;;;5043096;28;20021;-78
2021/05/14 01:33:48;;;;;;;3.60;3.30;;;12.70;64.80;;;;;;5026445;28;20030;-78
2021/05/14 01:36:16;;;;;;;3.40;3.10;;;12.70;64.90;;;;;;5034825;28;20043;-78
2021/05/14 01:38:42;;;;;;;4.63;3.33;;;12.70;64.90;;;;;;5047150;28;20100;-79
2021/05/14 01:41:08;;;;;;;3.85;3.55;;;12.70;64.90;;;;;;5047001;28;20098;-79
2021/05/14 01:43:34;;;;;;;3.97;3.55;;;12.70;64.90;;;;;;5047012;28;20535;-78
2021/05/14 01:46:05;;;;;;;4.03;3.25;;;12.70;64.90;;;;;;5045084;28;20025;-78
2021/05/14 01:48:32;;;;;;;3.88;3.47;;;12.70;65.00;;;;;;5053283;28;20041;-78
2021/05/14 01:51:05;;;;;;;4.45;3.55;;;12.70;64.90;;;;;;5053629;28;20029;-77
2021/05/14 01:53:31;;;;;;;3.42;3.10;;;12.70;65.00;;;;;;5053948;28;20028;-78
2021/05/14 01:55:57;;;;;;;4.93;4.18;;;12.70;65.00;;;;;;5053914;28;20256;-77
2021/05/14 01:58:23;;;;;;;3.75;3.45;;;12.70;65.00;;;;;;5054706;28;20090;-78
2021/05/14 02:00:49;;;;;;;4.45;3.58;;;12.70;65.00;;;;;;5053392;28;20484;-78
2021/05/14 02:03:15;;;;;;;4.35;3.95;;;12.70;65.00;;;;;;5038322;28;20033;-78
2021/05/14 02:05:41;;;;;;;4.75;3.75;;;12.60;64.80;;;;;;5034073;28;20124;-77
2021/05/14 02:08:07;;;;;;;3.60;3.30;;;12.60;64.80;;;;;;5016216;28;20121;-78
2021/05/14 02:10:33;;;;;;;3.67;3.38;;;12.60;64.80;;;;;;5033566;28;20040;-78
2021/05/14 02:12:59;;;;;;;6.35;4.10;;;12.60;64.90;;;;;;5033621;28;20034;-77
2021/05/14 02:15:25;;;;;;;4.10;3.80;;;12.50;64.70;;;;;;4999630;28;20076;-78
2021/05/14 02:17:50;;;;;;;4.38;3.97;;;12.50;64.70;;;;;;5033732;28;20029;-78
2021/05/14 02:20:16;;;;;;;3.67;3.33;;;12.50;64.70;;;;;;5033348;28;20153;-78
2021/05/14 02:22:42;;;;;;;5.10;4.60;;;12.60;64.90;;;;;;5033524;28;20303;-78
2021/05/14 02:25:09;;;;;;;4.57;4.00;;;12.50;64.80;;;;;;5033451;28;20365;-78
2021/05/14 02:27:35;;;;;;;4.68;4.28;;;12.50;64.80;;;;;;5033571;28;20029;-78
2021/05/14 02:30:04;;;;;;;4.20;3.80;;;12.50;64.80;;;;;;5033238;28;20453;-78
2021/05/14 02:32:31;;;;;;;4.65;4.25;;;12.50;64.90;;;;;;5033281;28;20560;-78
2021/05/14 02:34:57;;;;;;;4.10;3.78;;;12.50;64.90;;;;;;5033249;28;20477;-79
2021/05/14 02:37:23;;;;;;;5.32;4.60;;;12.50;64.90;;;;;;5033055;28;20040;-78
2021/05/14 02:39:49;;;;;;;5.07;4.53;;;12.40;64.70;;;;;;5033085;28;20075;-78
2021/05/14 02:42:14;;;;;;;4.30;4.00;;;12.50;64.90;;;;;;5032026;28;20125;-78
2021/05/14 02:44:40;;;;;;;5.07;4.68;;;12.50;64.90;;;;;;5032896;28;20108;-78
2021/05/14 02:47:08;;;;;;;4.35;3.95;;;12.40;64.80;;;;;;5031619;28;20531;-78
2021/05/14 02:49:35;;;;;;;5.35;4.35;;;12.40;64.80;;;;;;5032135;28;20053;-78
2021/05/14 02:52:03;;;;;;;5.10;4.60;;;12.50;65.00;;;;;;5032838;28;20053;-78
2021/05/14 02:54:29;;;;;;;4.70;4.15;;;12.40;64.80;;;;;;5033007;28;20034;-77
2021/05/14 02:56:55;;;;;;;4.75;4.32;;;12.40;64.80;;;;;;5032677;28;20120;-77
2021/05/14 02:59:21;;;;;;;5.38;4.88;;;12.40;64.80;;;;;;5031195;28;20519;-78
2021/05/14 03:01:48;;;;;;;5.38;4.88;;;12.40;64.80;;;;;;5031734;28;20037;-78
2021/05/14 03:04:16;;;;;;;5.00;4.50;;;12.40;64.80;;;;;;5033121;28;20376;-78
2021/05/14 03:06:42;;;;;;;4.70;4.32;;;12.40;64.80;;;;;;5032793;28;20388;-78
2021/05/14 03:09:08;;;;;;;5.25;4.78;;;12.40;64.80;;;;;;5032567;28;20021;-78
2021/05/14 03:11:34;;;;;;;4.65;4.25;;;12.30;64.60;;;;;;5031668;28;20029;-78
2021/05/14 03:14:00;;;;;;;5.05;4.65;;;12.30;64.60;;;;;;5033127;28;20037;-79
2021/05/14 03:16:26;;;;;;;4.85;4.38;;;12.30;64.70;;;;;;5033314;28;20120;-78
2021/05/14 03:18:52;;;;;;;6.00;5.35;;;12.30;64.60;;;;;;5016118;28;20125;-79
2021/05/14 03:21:18;;;;;;;4.93;4.53;;;12.30;64.70;;;;;;5032309;28;20121;-79
2021/05/14 03:23:44;;;;;;;5.20;4.75;;;12.30;64.70;;;;;;5014988;28;20026;-78
2021/05/14 03:26:10;;;;;;;5.80;5.20;;;12.30;65.30;;;;;;5032465;28;20300;-79
2021/05/14 03:28:36;;;;;;;4.82;4.43;;;12.20;64.60;;;;;;5015300;28;20029;-79
2021/05/14 03:31:02;;;;;;;4.90;4.45;;;12.30;64.80;;;;;;5034417;28;20025;-80
2021/05/14 03:33:29;;;;;;;4.85;4.45;;;12.20;64.70;;;;;;5050475;28;20111;-79
2021/05/14 03:35:55;;;;;;;4.97;4.47;;;12.20;64.70;;;;;;5031751;28;20022;-79
2021/05/14 03:38:28;;;;;;;6.13;5.13;;;12.20;64.70;;;;;;5030832;28;20029;-79
2021/05/14 03:40:54;;;;;;;5.25;4.80;;;12.10;64.60;;;;;;5030500;28;20113;-79
2021/05/14 03:43:20;;;;;;;5.28;4.75;;;12.10;64.60;;;;;;5030738;28;20026;-79
2021/05/14 03:45:46;;;;;;;5.07;4.68;;;12.10;64.60;;;;;;5030598;28;20033;-78
2021/05/14 03:48:20;;;;;;;5.70;5.20;;;12.10;64.70;;;;;;5013946;28;20037;-79
2021/05/14 03:50:50;;;;;;;;;;;12.00;64.50;;;;;;5014437;28;20025;-79
2021/05/14 03:53:17;;;;;;;5.20;4.78;;;12.00;64.50;;;;;;5031641;28;19916;-78
2021/05/14 03:55:43;;;;;;;5.50;5.00;;;12.00;64.40;;;;;;5030621;28;20397;-77
2021/05/14 03:58:09;;;;;;;6.03;5.53;;;12.00;64.50;;;;;;5031613;28;20030;-78
2021/05/14 04:00:36;;;;;;;5.85;5.35;;;11.90;64.40;;;;;;5014112;28;20041;-77
2021/05/14 04:03:02;;;;;;;6.10;5.60;;;11.90;64.50;;;;;;5031302;28;20026;-78
2021/05/14 04:05:28;;;;;;;5.57;5.07;;;11.90;64.50;;;;;;5031356;28;20030;-77
2021/05/14 04:07:54;;;;;;;5.65;5.15;;;11.90;64.60;;;;;;5031933;28;20029;-77
2021/05/14 04:15:38;;;;;;;6.28;5.35;;;11.80;64.50;;;;;;5031137;28;20048;-78
2021/05/14 04:18:04;;;;;;;6.03;5.53;;;11.80;64.50;;;;;;5030067;28;20025;-78
2021/05/14 04:20:30;;;;;;;6.75;6.13;;;11.90;64.70;;;;;;5029971;28;20080;-78
2021/05/14 04:22:56;;;;;;;5.85;5.35;;;11.80;64.50;;;;;;5031307;28;20112;-78
2021/05/14 04:25:22;;;;;;;6.68;6.07;;;11.80;64.50;;;;;;5030092;28;20030;-77
2021/05/14 04:27:48;;;;;;;6.30;5.72;;;11.80;64.60;;;;;;5030226;28;20112;-78
2021/05/14 04:30:15;;;;;;;6.80;6.07;;;11.80;64.60;;;;;;5029664;28;20041;-78
2021/05/14 04:32:41;;;;;;;6.03;5.50;;;11.80;64.60;;;;;;5030168;28;20056;-78
2021/05/14 04:35:07;;;;;;;7.18;6.47;;;11.80;64.60;;;;;;5013440;28;20029;-78
2021/05/14 04:37:33;;;;;;;6.13;5.53;;;11.80;64.60;;;;;;5029772;28;20036;-78
2021/05/14 04:39:59;;;;;;;7.68;6.70;;;11.80;64.70;;;;;;5029833;28;20033;-78
2021/05/14 04:42:25;;;;;;;6.72;6.13;;;11.80;64.70;;;;;;5013338;28;20034;-78
2021/05/14 04:44:51;;;;;;;6.60;5.97;;;11.80;64.60;;;;;;5029930;28;20151;-77
2021/05/14 04:47:17;;;;;;;6.70;5.93;;;11.80;64.60;;;;;;5028761;28;20049;-78
2021/05/14 04:49:43;;;;;;;7.25;6.20;;;11.80;64.60;;;;;;5012432;28;20048;-78
2021/05/14 04:52:17;;;;;;;6.75;6.10;;;11.70;64.50;;;;;;5010707;28;20033;-78
2021/05/14 04:54:45;;;;;;;6.72;5.65;;;11.80;64.70;;;;;;5033720;28;20044;-77
2021/05/14 04:57:11;;;;;;;6.85;6.15;;;11.80;64.60;;;;;;5029787;28;20029;-78
2021/05/14 04:59:37;;;;;;;8.60;6.72;;;11.80;64.60;;;;;;5010962;28;20045;-77
2021/05/14 05:02:06;;;;;;;6.60;6.00;;;11.80;64.60;;;;;;5027201;28;20377;-77
2021/05/14 05:04:37;;;;;;;8.00;7.22;;;11.80;64.60;;;;;;5027932;28;20484;-78
2021/05/14 05:07:07;;;;;;;10.45;7.20;;;11.80;64.60;;;;;;5046507;28;20571;-78
2021/05/14 05:09:33;;;;;;;6.95;6.30;;;11.80;64.60;;;;;;5027627;28;20037;-78
2021/05/14 05:11:59;;;;;;;6.72;6.13;;;11.80;64.60;;;;;;5009011;28;20041;-77
2021/05/14 05:14:25;;;;;;;7.45;6.68;;;11.80;64.60;;;;;;5026848;28;20025;-78
2021/05/14 05:16:51;;;;;;;8.27;7.43;;;11.80;64.60;;;;;;5026614;28;20468;-78
2021/05/14 05:19:17;;;;;;;8.13;6.85;;;11.80;64.60;;;;;;5027966;28;20147;-78
2021/05/14 05:21:43;;;;;;;7.90;7.10;;;11.80;64.60;;;;;;5028725;28;20138;-78
2021/05/14 05:24:09;;;;;;;7.55;6.80;;;11.80;64.60;;;;;;5029409;28;20073;-79
2021/05/14 05:26:36;;;;;;;8.20;6.53;;;11.80;64.60;;;;;;5018303;28;20052;-78
2021/05/14 05:29:02;;;;;;;7.82;6.97;;;11.80;64.60;;;;;;5031800;28;20550;-79
2021/05/14 05:31:28;;;;;;;8.27;7.50;;;11.90;64.80;;;;;;5010624;28;20029;-79
2021/05/14 05:33:55;;;;;;;7.50;6.82;;;11.90;64.80;;;;;;5012692;28;20369;-79
2021/05/14 05:36:21;;;;;;;8.05;7.18;;;11.90;64.80;;;;;;5012310;28;20044;-77
2021/05/14 05:38:50;;;;;;;8.27;7.38;;;11.90;64.80;;;;;;5024063;28;20028;-78
2021/05/14 05:41:17;;;;;;;7.70;7.00;;;12.00;65.00;;;;;;5015777;28;20033;-80
2021/05/14 05:43:44;;;;;;;11.40;7.78;;;12.10;65.10;;;;;;5015513;28;20029;-78
2021/05/14 05:46:11;;;;;;;7.75;6.95;;;12.10;65.00;;;;;;5030644;28;20092;-77
2021/05/14 05:48:38;;;;;;;10.95;7.75;;;12.20;65.10;;;;;;5011052;28;20350;-79
2021/05/14 05:51:11;;;;;;;7.88;7.10;;;12.30;65.20;;;;;;5006827;28;20409;-79
2021/05/14 05:53:38;;;;;;;9.32;8.40;;;12.40;65.20;;;;;;5015056;28;20476;-79
2021/05/14 05:56:04;;;;;;;8.82;7.93;;;12.40;65.10;;;;;;5015168;28;20120;-79
2021/05/14 05:58:32;;;;;;;12.20;9.57;;;12.50;65.20;;;;;;5027325;28;20053;-80
2021/05/14 06:00:59;;;;;;;11.40;8.00;;;12.60;65.30;;;;;;5015095;28;20029;-82
2021/05/14 06:03:25;;;;;;;11.05;9.02;;;12.70;65.60;;;;;;5032049;28;20032;-86
2021/05/14 06:05:51;;;;;;;13.45;9.73;;;12.80;65.80;;;;;;5015015;28;20103;-84
2021/05/14 06:08:18;;;;;;;10.93;9.57;;;13.00;66.60;;;;;;5031953;28;20037;-80
2021/05/14 06:10:48;;;;;;;14.95;9.20;;;13.10;66.20;;;;;;4995271;28;20041;-78
2021/05/14 06:13:16;;;;;;;17.40;11.18;;;13.20;66.50;;;;;;4995423;28;20029;-79
2021/05/14 06:15:42;;;;;;;11.43;9.85;;;13.40;67.10;;;;;;4995793;28;20079;-79
2021/05/14 06:18:18;;;;;;;13.43;10.20;;;13.60;67.50;;;;;;5018038;28;20036;-79
2021/05/14 06:20:46;;;;;;;13.75;10.93;;;13.70;68.00;;;;;;5013012;28;20035;-79
2021/05/14 06:23:13;;;;;;;14.52;10.93;;;13.90;68.20;;;;;;5031413;28;20068;-78
2021/05/14 06:25:40;;;;;;;13.50;10.32;;;14.10;68.50;;;;;;5032574;28;20075;-80
2021/05/14 06:28:07;;;;;;;12.43;10.98;;;14.30;69.30;;;;;;5030820;28;20021;-79
2021/05/14 06:30:33;;;;;;;12.02;10.77;;;14.50;69.10;;;;;;5025779;28;20037;-81
2021/05/14 06:32:59;;;;;;;12.70;11.40;;;14.70;69.50;;;;;;5017733;28;20037;-82
2021/05/14 06:35:26;;;;;;;15.57;10.98;;;14.90;69.70;;;;;;5014642;28;20033;-79
2021/05/14 06:37:52;;;;;;;13.45;10.75;;;15.00;69.70;;;;;;5010891;28;20040;-80
2021/05/14 06:40:19;;;;;;;13.40;10.23;;;15.20;69.90;;;;;;4996117;28;20037;-83
2021/05/14 06:42:45;;;;;;;11.43;10.05;;;15.30;69.80;;;;;;5030016;28;20037;-81
2021/05/14 06:45:11;;;;;;;10.85;9.13;;;15.40;69.90;;;;;;5014596;28;20090;-80
2021/05/14 06:47:37;;;;;;;12.98;10.75;;;15.50;69.90;;;;;;5010448;28;20056;-80
2021/05/14 06:50:05;;;;;;;11.40;10.20;;;15.60;70.00;;;;;;5027489;28;20045;-81
2021/05/14 06:52:33;;;;;;;12.25;10.13;;;15.70;70.10;;;;;;5010890;28;20031;-80
2021/05/14 06:55:02;;;;;;;11.30;9.75;;;15.70;70.00;;;;;;5027299;28;20029;-80
2021/05/14 06:57:27;;;;;;;13.02;10.25;;;15.80;70.10;;;;;;5010236;28;20029;-79
2021/05/14 06:59:53;;;;;;;12.13;10.65;;;15.90;70.20;;;;;;5026975;28;20048;-80
2021/05/14 07:02:20;;;;;;;11.15;9.90;;;16.10;70.40;;;;;;5008181;28;20095;-80
2021/05/14 07:04:46;;;;;;;15.80;10.95;;;16.30;70.90;;;;;;4990838;28;20061;-80
2021/05/14 07:07:12;;;;;;;13.02;10.38;;;16.60;71.20;;;;;;4991297;28;20497;-82
2021/05/14 07:09:38;;;;;;;11.73;10.40;;;17.00;71.40;;;;;;4990572;28;20038;-81
2021/05/14 07:12:05;;;;;;;14.38;10.77;;;17.30;71.40;;;;;;4991186;28;20477;-81
2021/05/14 07:14:31;;;;;;;9.88;8.85;;;17.70;71.20;;;;;;4991141;28;20045;-80
2021/05/14 07:16:57;;;;;;;11.05;9.02;;;18.10;71.30;;;;;;4990498;28;20029;-80
2021/05/14 07:19:25;;;;;;;11.25;9.45;;;18.30;70.80;;;;;;5007089;28;20033;-82
2021/05/14 07:21:55;;;;;;;11.13;9.65;;;18.60;70.80;;;;;;4991337;28;20030;-81
2021/05/14 07:24:21;;;;;;;15.88;9.55;;;18.90;70.70;;;;;;4990591;28;20041;-81
2021/05/14 07:26:47;;;;;;;10.07;9.18;;;19.30;70.70;;;;;;4990579;28;20026;-81
2021/05/14 07:29:14;;;;;;;10.10;8.98;;;19.60;70.50;;;;;;4990173;28;20033;-82
2021/05/14 07:31:41;;;;;;;12.15;8.77;;;20.00;70.20;;;;;;4991702;28;20045;-82
2021/05/14 07:34:07;;;;;;;9.35;8.40;;;20.20;69.70;;;;;;5006720;28;20045;-82
2021/05/14 07:36:37;;;;;;;13.88;9.35;;;20.50;69.50;;;;;;5010178;28;20037;-84
2021/05/14 07:39:04;;;;;;;9.50;8.45;;;20.70;69.00;;;;;;5026005;28;20037;-81
2021/05/14 07:41:31;;;;;;;8.98;8.02;;;20.80;68.50;;;;;;5009296;28;20037;-82
2021/05/14 07:43:58;;;;;;;8.90;7.70;;;21.00;68.70;;;;;;5024901;28;20029;-81
2021/05/14 07:46:24;;;;;;;8.48;7.50;;;21.20;68.60;;;;;;4992720;28;20049;-80
2021/05/14 07:48:50;;;;;;;9.23;8.20;;;21.30;68.20;;;;;;5005843;28;20037;-80
2021/05/14 07:51:16;;;;;;;9.13;8.23;;;21.30;67.70;;;;;;5006246;28;20042;-81
2021/05/14 07:53:42;;;;;;;9.07;7.57;;;21.20;67.30;;;;;;5003149;28;20061;-80
2021/05/14 07:56:09;;;;;;;10.90;8.50;;;21.10;66.70;;;;;;5009508;28;20083;-80
2021/05/14 07:58:36;;;;;;;18.65;7.95;;;21.00;66.40;;;;;;5006054;28;20034;-80
2021/05/14 08:01:03;;;;;;;10.15;9.13;;;20.90;66.30;;;;;;4989483;28;20026;-80
2021/05/14 08:03:29;;;;;;;11.07;9.10;;;20.80;66.20;;;;;;5000643;28;20080;-80
2021/05/14 08:05:55;;;;;;;9.98;8.38;;;20.70;66.10;;;;;;5009048;28;20025;-80
2021/05/14 08:08:23;;;;;;;9.38;8.40;;;20.70;66.10;;;;;;5005771;28;20030;-80
2021/05/14 08:10:54;;;;;;;9.57;8.73;;;20.80;66.30;;;;;;5005428;28;20045;-80
2021/05/14 08:13:22;;;;;;;8.38;7.65;;;20.80;66.00;;;;;;4999179;28;20464;-80
2021/05/14 08:15:48;;;;;;;7.95;7.15;;;20.90;66.20;;;;;;5009426;28;20060;-80
2021/05/14 08:18:17;;;;;;;9.88;8.63;;;20.90;66.10;;;;;;5005368;28;20320;-80
2021/05/14 08:20:45;;;;;;;8.30;7.45;;;20.90;66.10;;;;;;4989671;28;20033;-79
2021/05/14 08:23:11;;;;;;;8.43;7.45;;;20.90;66.00;;;;;;4998287;28;20078;-80
2021/05/14 08:25:38;;;;;;;9.40;8.50;;;20.80;65.70;;;;;;5008618;28;20056;-79
2021/05/14 08:28:05;;;;;;;9.93;8.25;;;20.80;65.70;;;;;;5005527;28;20083;-80
2021/05/14 08:30:31;;;;;;;9.73;7.75;;;20.70;65.50;;;;;;5005586;28;20092;-80
2021/05/14 08:32:58;;;;;;;8.43;7.70;;;20.70;65.60;;;;;;4996305;28;20473;-79
2021/05/14 08:35:24;;;;;;;8.98;8.05;;;20.70;65.70;;;;;;5008882;28;20037;-79
2021/05/14 08:37:52;;;;;;;7.78;7.07;;;20.70;65.60;;;;;;5008160;28;20055;-80
2021/05/14 08:40:18;;;;;;;8.50;7.68;;;20.80;65.70;;;;;;5008981;28;20087;-80
2021/05/14 08:42:44;;;;;;;8.18;7.38;;;20.70;65.40;;;;;;5006401;28;20037;-80
2021/05/14 08:45:12;;;;;;;7.75;7.00;;;20.80;65.50;;;;;;4990149;28;20097;-79
2021/05/14 08:47:39;;;;;;;8.02;7.22;;;20.70;65.20;;;;;;4990913;28;20046;-79
2021/05/14 08:50:07;;;;;;;7.60;6.88;;;20.70;65.20;;;;;;5027089;28;20038;-79
2021/05/14 08:52:38;;;;;;;7.63;6.93;;;20.60;65.10;;;;;;5025130;28;20188;-79
2021/05/14 08:55:06;;;;;;;7.38;6.55;;;20.60;65.10;;;;;;5008660;28;20033;-78
2021/05/14 08:57:33;;;;;;;12.38;7.03;;;20.50;64.90;;;;;;5010227;28;20032;-79
2021/05/14 08:59:59;;;;;;;9.00;6.70;;;20.40;64.70;;;;;;5009245;28;20495;-79
2021/05/14 09:02:25;;;;;;;7.20;6.60;;;20.30;64.50;;;;;;5012004;28;20033;-78
2021/05/14 09:04:51;;;;;;;9.07;7.07;;;20.30;64.50;;;;;;5012111;28;20033;-78
2021/05/14 09:07:19;;;;;;;6.50;5.90;;;20.20;64.40;;;;;;5028995;28;20032;-77
2021/05/14 09:10:08;;;;;;;8.93;6.72;;;20.20;64.50;;;;;;5010276;28;20091;-77
2021/05/14 09:12:37;;;;;;;9.98;6.60;;;20.10;64.40;;;;;;5012821;28;20064;-77
2021/05/14 09:15:23;;;;;;;7.13;6.43;;;20.20;64.50;;;;;;5030883;28;20441;-80
2021/05/14 09:18:09;;;;;;;7.47;6.10;;;20.30;64.60;;;;;;5028956;28;20037;-80
2021/05/14 09:20:43;;;;;;;6.35;5.70;;;20.40;64.70;;;;;;5012934;28;20037;-80
2021/05/14 09:23:15;;;;;;;6.70;6.10;;;20.60;64.90;;;;;;5029759;28;20029;-80
2021/05/14 09:25:52;;;;;;;6.20;5.60;;;20.70;64.70;;;;;;5029168;28;20025;-80
2021/05/14 09:28:23;;;;;;;6.95;6.00;;;20.90;64.70;;;;;;5022309;28;20030;-79
2021/05/14 09:31:16;;;;;;;6.55;5.90;;;21.00;64.60;;;;;;5010534;28;20037;-79
2021/05/14 09:34:09;;;;;;;6.73;6.07;;;21.10;64.60;;;;;;5023135;28;20053;-80
2021/05/14 09:36:35;;;;;;;6.40;5.78;;;21.10;64.50;;;;;;5026230;28;20523;-84
2021/05/14 09:39:03;;;;;;;7.57;6.70;;;21.10;64.50;;;;;;5029984;28;20036;-78
2021/05/14 09:41:45;;;;;;;6.05;5.45;;;21.10;64.50;;;;;;5028971;28;20030;-77
2021/05/14 09:44:19;;;;;;;7.03;6.32;;;21.00;64.20;;;;;;5029940;28;20037;-77
2021/05/14 09:46:54;;;;;;;6.45;5.85;;;21.00;64.20;;;;;;5037350;28;20040;-79
2021/05/14 09:49:23;;;;;;;6.95;6.28;;;21.00;64.20;;;;;;5049062;28;20035;-78
2021/05/14 09:51:56;;;;;;;9.32;5.93;;;21.10;64.40;;;;;;5032197;28;20141;-77
2021/05/14 09:54:30;;;;;;;6.03;5.45;;;21.10;64.40;;;;;;5049560;28;20063;-78
2021/05/14 09:57:36;;;;;;;6.57;5.25;;;21.10;64.30;;;;;;5049577;28;20531;-77
2021/05/14 10:00:09;;;;;;;8.02;5.68;;;21.00;64.10;;;;;;5029815;28;20021;-78
2021/05/14 10:02:38;;;;;;;7.65;5.25;;;21.00;64.00;;;;;;5030675;28;20120;-76
2021/05/14 10:05:13;;;;;;;8.70;6.22;;;21.00;64.00;;;;;;5031023;28;20736;-77
2021/05/14 10:07:40;;;;;;;6.00;5.38;;;21.00;63.90;;;;;;5048582;28;20503;-77
2021/05/14 10:10:09;;;;;;;6.63;6.00;;;21.00;64.00;;;;;;5014824;28;20044;-77
2021/05/14 10:12:36;;;;;;;6.43;5.38;;;21.00;63.90;;;;;;5049230;28;20055;-77
2021/05/14 10:15:10;;;;;;;6.43;5.10;;;21.00;63.90;;;;;;5028912;28;20033;-78
2021/05/14 10:17:43;;;;;;;6.28;5.68;;;21.00;63.80;;;;;;5012533;28;20037;-78
2021/05/14 10:20:17;;;;;;;7.47;4.93;;;21.00;63.70;;;;;;5048908;28;20025;-77
2021/05/14 10:22:46;;;;;;;7.20;5.45;;;21.10;63.80;;;;;;5010002;28;20044;-82
2021/05/14 10:25:14;;;;;;;5.80;5.18;;;21.10;63.80;;;;;;4994631;28;20025;-77
2021/05/14 10:27:46;;;;;;;7.90;5.68;;;21.20;64.00;;;;;;5012126;28;20060;-78
2021/05/14 10:30:13;;;;;;;5.65;5.10;;;21.30;64.10;;;;;;5030763;28;20139;-77
2021/05/14 10:32:43;;;;;;;6.22;5.63;;;21.40;64.00;;;;;;5048814;28;20033;-79
2021/05/14 10:35:28;;;;;;;5.78;5.05;;;21.40;63.90;;;;;;5030568;28;20498;-79
2021/05/14 10:38:04;;;;;;;6.47;5.40;;;21.60;64.10;;;;;;5030458;28;20037;-78
2021/05/14 10:40:33;;;;;;;6.75;5.07;;;21.60;63.90;;;;;;5031016;28;20452;-75
2021/05/14 10:43:06;;;;;;;6.78;4.97;;;21.70;64.00;;;;;;5010835;28;20037;-76
2021/05/14 10:45:37;;;;;;;7.00;5.03;;;21.80;64.00;;;;;;5027582;28;20404;-76
2021/05/14 10:48:16;;;;;;;6.78;5.32;;;21.90;64.00;;;;;;5028105;28;20279;-76
2021/05/14 10:50:55;;;;;;;6.45;4.85;;;21.90;64.00;;;;;;5028194;28;20042;-75
2021/05/14 10:53:37;;;;;;;7.25;5.55;;;22.00;64.10;;;;;;5027343;28;20056;-75
2021/05/14 10:56:09;;;;;;;5.55;4.97;;;22.20;64.20;;;;;;5028495;28;20115;-76
2021/05/14 10:58:38;;;;;;;7.68;5.82;;;22.30;64.10;;;;;;5036510;28;20025;-78
2021/05/14 11:01:05;;;;;;;5.25;4.75;;;22.50;64.30;;;;;;5030752;28;20029;-78
2021/05/14 11:03:32;;;;;;;6.60;5.05;;;22.60;64.20;;;;;;5019702;28;20414;-76
2021/05/14 11:06:18;;;;;;;6.32;5.63;;;22.80;64.20;;;;;;5028188;28;20111;-76
2021/05/14 11:09:04;;;;;;;7.50;5.35;;;22.90;64.10;;;;;;5003360;28;20045;-76
2021/05/14 11:11:30;;;;;;;5.80;4.90;;;23.10;64.20;;;;;;5030080;28;20102;-75
2021/05/14 11:14:14;;;;;;;7.82;5.43;;;23.20;64.20;;;;;;5047561;28;20028;-74
2021/05/14 11:16:44;;;;;;;5.95;4.85;;;23.30;64.10;;;;;;5048079;28;20496;-76
2021/05/14 11:19:25;;;;;;;7.28;5.30;;;23.50;64.40;;;;;;5012535;28;20063;-77
2021/05/14 11:22:09;;;;;;;6.93;5.20;;;23.80;64.60;;;;;;5029630;28;20129;-74
2021/05/14 11:25:05;;;;;;;6.00;5.40;;;23.90;64.50;;;;;;5013361;28;20395;-75
2021/05/14 11:27:33;;;;;;;6.60;5.63;;;24.10;64.50;;;;;;5047610;28;20476;-75
2021/05/14 11:30:03;;;;;;;6.13;4.72;;;24.40;64.60;;;;;;5047284;28;20527;-75
2021/05/14 11:32:37;;;;;;;6.85;5.22;;;24.60;64.60;;;;;;5030049;28;20130;-75
2021/05/14 11:35:06;;;;;;;6.90;4.97;;;24.90;64.80;;;;;;5012894;28;20033;-75
2021/05/14 11:37:41;;;;;;;7.28;5.00;;;25.10;64.60;;;;;;5029704;28;20461;-77
2021/05/14 11:40:10;;;;;;;5.22;4.60;;;25.40;64.40;;;;;;5029457;28;20434;-76
2021/05/14 11:42:45;;;;;;;7.20;5.00;;;25.70;64.20;;;;;;5044578;28;20025;-76
2021/05/14 11:45:20;;;;;;;4.72;4.32;;;25.90;63.80;;;;;;5025764;28;20041;-78
2021/05/14 11:47:57;;;;;;;5.55;4.20;;;26.20;63.60;;;;;;5027285;28;20042;-78
2021/05/14 11:50:35;;;;;;;6.60;4.70;;;26.30;63.20;;;;;;5009886;28;20042;-77
2021/05/14 11:53:08;;;;;;;5.95;4.15;;;26.40;63.00;;;;;;5009853;28;20373;-78
2021/05/14 11:55:39;;;;;;;5.13;4.03;;;26.40;62.90;;;;;;5009411;28;20041;-78
2021/05/14 11:58:06;;;;;;;5.65;4.40;;;26.30;63.40;;;;;;5030963;28;20389;-78
2021/05/14 12:00:33;;;;;;;7.32;4.18;;;26.30;63.00;;;;;;5029150;28;20443;-78
2021/05/14 12:03:03;;;;;;;5.88;4.32;;;26.30;62.90;;;;;;5047186;28;20482;-77
2021/05/14 12:05:29;;;;;;;5.88;4.03;;;26.50;62.90;;;;;;5029037;28;20052;-78
2021/05/14 12:08:13;;;;;;;5.60;4.38;;;26.80;62.80;;;;;;5044360;28;20049;-78
2021/05/14 12:10:49;;;;;;;6.50;4.22;;;27.00;62.40;;;;;;5009440;28;20055;-78
2021/05/14 12:13:20;;;;;;;3.90;3.50;;;27.20;62.10;;;;;;5027267;28;20061;-78
2021/05/14 12:15:55;;;;;;;5.18;3.90;;;27.50;61.90;;;;;;5025609;28;20079;-79
2021/05/14 12:18:21;;;;;;;6.90;4.07;;;27.70;61.70;;;;;;5033049;28;20577;-78
2021/05/14 12:20:47;;;;;;;5.22;3.75;;;27.90;61.40;;;;;;5028975;28;20488;-78
2021/05/14 12:23:14;;;;;;;4.20;3.80;;;28.20;61.20;;;;;;5027919;28;20519;-78
2021/05/14 12:26:00;;;;;;;6.63;3.78;;;28.40;60.80;;;;;;5028706;28;20491;-77
2021/05/14 12:28:31;;;;;;;5.90;3.40;;;28.60;60.40;;;;;;5047090;28;20044;-77
2021/05/14 12:30:59;;;;;;;3.65;2.90;;;28.80;60.30;;;;;;5012618;28;20076;-78
2021/05/14 12:33:25;;;;;;;7.53;2.88;;;29.00;60.00;;;;;;5046199;28;20391;-78
2021/05/14 12:36:05;;;;;;;5.68;3.38;;;29.20;59.80;;;;;;5046018;28;20025;-79
2021/05/14 12:38:46;;;;;;;4.00;2.70;;;29.40;59.40;;;;;;5028182;28;20060;-78
2021/05/14 12:41:28;;;;;;;3.90;3.13;;;29.60;59.20;;;;;;5046610;28;20021;-78
2021/05/14 12:44:13;;;;;;;4.13;2.78;;;29.80;58.90;;;;;;5046099;28;20037;-77
2021/05/14 12:47:08;;;;;;;4.07;2.85;;;30.00;58.60;;;;;;5011400;28;20037;-78
2021/05/14 12:49:58;;;;;;;3.53;3.00;;;30.30;58.50;;;;;;5008312;28;20057;-78
2021/05/14 12:52:35;;;;;;;6.32;3.05;;;30.40;58.20;;;;;;5025682;28;20084;-78
2021/05/14 12:55:14;;;;;;;4.78;3.20;;;30.50;57.90;;;;;;5029059;28;20032;-78
2021/05/14 12:57:52;;;;;;;3.40;2.00;;;30.70;57.70;;;;;;5045816;28;20388;-78
2021/05/14 13:00:29;;;;;;;4.50;2.70;;;30.80;57.60;;;;;;5028676;28;20060;-78